sensor_id;sensor_type;location;lat;lon;timestamp;pressure;altitude;pressure_sealevel;temperature;humidity
63285;BME280;49409;55.708;37.522;2023-02-19T00:01:07;97820.56;;;-0.66;46.91
63285;BME280;49409;55.708;37.522;2023-02-19T00:03:33;97805.91;;;-0.72;46.61
63285;BME280;49409;55.708;37.522;2023-02-19T00:06:02;97797.38;;;-0.81;47.28
63285;BME280;49409;55.708;37.522;2023-02-19T00:08:28;97807.00;;;-0.91;46.90
63285;BME280;49409;55.708;37.522;2023-02-19T00:10:54;97799.25;;;-0.92;47.47
63285;BME280;49409;55.708;37.522;2023-02-19T00:13:23;97802.75;;;-0.88;47.36
63285;BME280;49409;55.708;37.522;2023-02-19T00:15:49;97791.56;;;-0.90;46.90
63285;BME280;49409;55.708;37.522;2023-02-19T00:18:14;97794.25;;;-0.90;47.20
63285;BME280;49409;55.708;37.522;2023-02-19T00:20:39;97785.69;;;-1.03;47.40
63285;BME280;49409;55.708;37.522;2023-02-19T00:23:04;97781.03;;;-1.10;47.61
63285;BME280;49409;55.708;37.522;2023-02-19T00:25:30;97787.22;;;-1.06;47.60
63285;BME280;49409;55.708;37.522;2023-02-19T00:27:55;97788.03;;;-1.02;47.71
63285;BME280;49409;55.708;37.522;2023-02-19T00:30:21;97794.22;;;-0.94;47.40
63285;BME280;49409;55.708;37.522;2023-02-19T00:32:49;97785.75;;;-0.92;47.68
63285;BME280;49409;55.708;37.522;2023-02-19T00:35:15;97776.47;;;-0.98;47.18
63285;BME280;49409;55.708;37.522;2023-02-19T00:37:40;97774.97;;;-0.92;47.03
63285;BME280;49409;55.708;37.522;2023-02-19T00:40:06;97777.66;;;-0.85;47.42
63285;BME280;49409;55.708;37.522;2023-02-19T00:42:31;97786.53;;;-0.88;46.96
63285;BME280;49409;55.708;37.522;2023-02-19T00:44:56;97775.75;;;-0.81;47.30
63285;BME280;49409;55.708;37.522;2023-02-19T00:47:22;97771.53;;;-0.78;47.33
63285;BME280;49409;55.708;37.522;2023-02-19T00:49:47;97764.56;;;-0.90;46.94
63285;BME280;49409;55.708;37.522;2023-02-19T00:52:12;97756.06;;;-0.85;47.39
63285;BME280;49409;55.708;37.522;2023-02-19T00:54:38;97754.16;;;-0.81;47.22
63285;BME280;49409;55.708;37.522;2023-02-19T00:57:03;97748.03;;;-0.71;47.30
63285;BME280;49409;55.708;37.522;2023-02-19T00:59:30;97744.94;;;-0.66;47.16
63285;BME280;49409;55.708;37.522;2023-02-19T01:01:55;97739.53;;;-0.66;46.57
63285;BME280;49409;55.708;37.522;2023-02-19T01:04:20;97739.91;;;-0.67;47.18
63285;BME280;49409;55.708;37.522;2023-02-19T01:06:46;97738.75;;;-0.70;46.87
63285;BME280;49409;55.708;37.522;2023-02-19T01:09:13;97740.31;;;-0.69;47.31
63285;BME280;49409;55.708;37.522;2023-02-19T01:11:38;97727.97;;;-0.70;46.91
63285;BME280;49409;55.708;37.522;2023-02-19T01:14:03;97723.72;;;-0.64;46.62
63285;BME280;49409;55.708;37.522;2023-02-19T01:16:29;97734.16;;;-0.66;46.61
63285;BME280;49409;55.708;37.522;2023-02-19T01:18:55;97727.97;;;-0.70;46.87
63285;BME280;49409;55.708;37.522;2023-02-19T01:21:23;97734.94;;;-0.69;46.58
63285;BME280;49409;55.708;37.522;2023-02-19T01:23:49;97726.78;;;-0.76;46.60
63285;BME280;49409;55.708;37.522;2023-02-19T01:26:16;97725.66;;;-0.75;47.15
63285;BME280;49409;55.708;37.522;2023-02-19T01:28:42;97720.97;;;-0.82;47.36
63285;BME280;49409;55.708;37.522;2023-02-19T01:31:09;97719.44;;;-0.79;47.44
63285;BME280;49409;55.708;37.522;2023-02-19T01:33:35;97714.84;;;-0.75;46.86
63285;BME280;49409;55.708;37.522;2023-02-19T01:36:04;97714.06;;;-0.75;47.51
63285;BME280;49409;55.708;37.522;2023-02-19T01:38:30;97710.19;;;-0.78;46.88
63285;BME280;49409;55.708;37.522;2023-02-19T01:40:56;97710.56;;;-0.87;47.23
63285;BME280;49409;55.708;37.522;2023-02-19T01:43:22;97699.75;;;-0.90;46.98
63285;BME280;49409;55.708;37.522;2023-02-19T01:45:48;97702.41;;;-0.97;47.66
63285;BME280;49409;55.708;37.522;2023-02-19T01:48:14;97708.63;;;-0.90;47.71
63285;BME280;49409;55.708;37.522;2023-02-19T01:50:46;97711.72;;;-0.84;47.37
63285;BME280;49409;55.708;37.522;2023-02-19T01:53:13;97712.13;;;-0.82;46.91
63285;BME280;49409;55.708;37.522;2023-02-19T01:55:41;97707.09;;;-0.80;47.12
63285;BME280;49409;55.708;37.522;2023-02-19T01:58:06;97706.34;;;-0.81;46.58
63285;BME280;49409;55.708;37.522;2023-02-19T02:00:32;97710.94;;;-0.81;47.04
63285;BME280;49409;55.708;37.522;2023-02-19T02:02:58;97700.13;;;-0.95;47.59
63285;BME280;49409;55.708;37.522;2023-02-19T02:08:08;97705.16;;;-0.87;47.38
63285;BME280;49409;55.708;37.522;2023-02-19T02:10:52;97697.03;;;-0.94;47.31
63285;BME280;49409;55.708;37.522;2023-02-19T02:13:19;97707.81;;;-0.97;47.35
63285;BME280;49409;55.708;37.522;2023-02-19T02:16:07;97702.84;;;-0.88;47.78
63285;BME280;49409;55.708;37.522;2023-02-19T02:18:33;97709.41;;;-0.82;47.56
63285;BME280;49409;55.708;37.522;2023-02-19T02:21:09;97699.38;;;-0.85;47.21
63285;BME280;49409;55.708;37.522;2023-02-19T02:29:18;97690.44;;;-1.04;47.82
63285;BME280;49409;55.708;37.522;2023-02-19T02:34:48;97688.88;;;-1.12;47.44
63285;BME280;49409;55.708;37.522;2023-02-19T02:37:17;97686.19;;;-1.08;47.40
63285;BME280;49409;55.708;37.522;2023-02-19T02:39:43;97692.38;;;-1.08;47.77
63285;BME280;49409;55.708;37.522;2023-02-19T02:42:09;97686.22;;;-1.05;47.33
63285;BME280;49409;55.708;37.522;2023-02-19T02:44:56;97691.22;;;-1.10;48.03
63285;BME280;49409;55.708;37.522;2023-02-19T02:47:52;97684.63;;;-1.13;47.25
63285;BME280;49409;55.708;37.522;2023-02-19T02:50:21;97683.84;;;-1.13;47.29
63285;BME280;49409;55.708;37.522;2023-02-19T02:52:49;97685.81;;;-1.10;47.28
63285;BME280;49409;55.708;37.522;2023-02-19T02:55:36;97693.84;;;-1.21;47.81
63285;BME280;49409;55.708;37.522;2023-02-19T02:58:04;97679.22;;;-1.13;47.23
63285;BME280;49409;55.708;37.522;2023-02-19T03:00:30;97679.22;;;-1.20;48.41
63285;BME280;49409;55.708;37.522;2023-02-19T03:03:16;97675.75;;;-1.17;48.14
63285;BME280;49409;55.708;37.522;2023-02-19T03:05:43;97681.53;;;-1.15;47.96
63285;BME280;49409;55.708;37.522;2023-02-19T03:08:21;97683.09;;;-1.07;47.33
63285;BME280;49409;55.708;37.522;2023-02-19T03:13:18;97677.31;;;-1.05;47.39
63285;BME280;49409;55.708;37.522;2023-02-19T03:16:11;97683.09;;;-1.14;47.62
63285;BME280;49409;55.708;37.522;2023-02-19T03:18:57;97671.56;;;-1.04;47.42
63285;BME280;49409;55.708;37.522;2023-02-19T03:21:42;97669.22;;;-1.05;47.42
63285;BME280;49409;55.708;37.522;2023-02-19T03:24:08;97673.13;;;-1.03;47.62
63285;BME280;49409;55.708;37.522;2023-02-19T03:27:01;97667.69;;;-1.10;47.95
63285;BME280;49409;55.708;37.522;2023-02-19T03:29:29;97659.97;;;-1.08;48.29
63285;BME280;49409;55.708;37.522;2023-02-19T03:31:56;97667.69;;;-1.10;47.50
63285;BME280;49409;55.708;37.522;2023-02-19T03:34:45;97659.63;;;-1.03;47.77
63285;BME280;49409;55.708;37.522;2023-02-19T03:37:13;97666.16;;;-1.00;48.24
63285;BME280;49409;55.708;37.522;2023-02-19T03:39:39;97659.22;;;-0.97;48.25
63285;BME280;49409;55.708;37.522;2023-02-19T03:42:15;97651.16;;;-0.90;48.03
63285;BME280;49409;55.708;37.522;2023-02-19T03:44:44;97644.59;;;-0.89;47.36
63285;BME280;49409;55.708;37.522;2023-02-19T03:47:15;97655.81;;;-0.80;47.52
63285;BME280;49409;55.708;37.522;2023-02-19T03:49:50;97654.66;;;-0.83;48.17
63285;BME280;49409;55.708;37.522;2023-02-19T03:54:52;97651.53;;;-0.88;47.44
63285;BME280;49409;55.708;37.522;2023-02-19T04:02:30;97639.19;;;-0.89;47.65
63285;BME280;49409;55.708;37.522;2023-02-19T04:04:58;97645.75;;;-0.90;47.93
63285;BME280;49409;55.708;37.522;2023-02-19T04:07:27;97639.97;;;-0.85;47.39
63285;BME280;49409;55.708;37.522;2023-02-19T04:09:56;97639.22;;;-0.82;47.35
63285;BME280;49409;55.708;37.522;2023-02-19T04:12:22;97640.75;;;-0.88;47.93
63285;BME280;49409;55.708;37.522;2023-02-19T04:14:49;97643.84;;;-0.86;47.74
63285;BME280;49409;55.708;37.522;2023-02-19T04:17:18;97630.34;;;-0.83;47.18
63285;BME280;49409;55.708;37.522;2023-02-19T04:19:44;97624.53;;;-0.81;47.50
63285;BME280;49409;55.708;37.522;2023-02-19T04:22:12;97628.00;;;-0.88;47.63
63285;BME280;49409;55.708;37.522;2023-02-19T04:24:39;97632.66;;;-0.85;47.19
63285;BME280;49409;55.708;37.522;2023-02-19T04:27:07;97627.63;;;-0.86;47.89
63285;BME280;49409;55.708;37.522;2023-02-19T04:29:33;97632.63;;;-0.81;47.10
63285;BME280;49409;55.708;37.522;2023-02-19T04:31:58;97631.47;;;-0.87;47.91
63285;BME280;49409;55.708;37.522;2023-02-19T04:34:23;97631.47;;;-0.87;47.93
63285;BME280;49409;55.708;37.522;2023-02-19T04:36:49;97630.72;;;-0.88;48.08
63285;BME280;49409;55.708;37.522;2023-02-19T04:39:14;97633.03;;;-0.83;47.30
63285;BME280;49409;55.708;37.522;2023-02-19T04:41:39;97628.81;;;-0.76;47.26
63285;BME280;49409;55.708;37.522;2023-02-19T04:44:05;97633.03;;;-0.83;47.52
63285;BME280;49409;55.708;37.522;2023-02-19T04:46:30;97630.31;;;-0.79;47.62
63285;BME280;49409;55.708;37.522;2023-02-19T04:48:55;97631.88;;;-0.85;47.71
63285;BME280;49409;55.708;37.522;2023-02-19T04:51:21;97628.41;;;-0.86;47.69
63285;BME280;49409;55.708;37.522;2023-02-19T04:53:46;97630.75;;;-0.77;47.66
63285;BME280;49409;55.708;37.522;2023-02-19T04:56:12;97628.44;;;-0.75;47.64
63285;BME280;49409;55.708;37.522;2023-02-19T04:58:38;97620.31;;;-0.82;47.88
63285;BME280;49409;55.708;37.522;2023-02-19T05:01:04;97613.75;;;-0.85;47.73
63285;BME280;49409;55.708;37.522;2023-02-19T05:03:30;97623.41;;;-0.80;48.00
63285;BME280;49409;55.708;37.522;2023-02-19T05:05:55;97619.94;;;-0.70;47.88
63285;BME280;49409;55.708;37.522;2023-02-19T05:08:20;97613.38;;;-0.69;47.45
63285;BME280;49409;55.708;37.522;2023-02-19T05:10:46;97615.69;;;-0.71;47.35
63285;BME280;49409;55.708;37.522;2023-02-19T05:13:11;97617.22;;;-0.70;47.69
63285;BME280;49409;55.708;37.522;2023-02-19T05:15:36;97613.00;;;-0.74;47.49
63285;BME280;49409;55.708;37.522;2023-02-19T05:18:02;97604.09;;;-0.82;48.00
63285;BME280;49409;55.708;37.522;2023-02-19T05:20:27;97611.84;;;-0.77;47.84
63285;BME280;49409;55.708;37.522;2023-02-19T05:22:53;97612.97;;;-0.78;47.66
63285;BME280;49409;55.708;37.522;2023-02-19T05:25:18;97606.03;;;-0.83;47.48
63285;BME280;49409;55.708;37.522;2023-02-19T05:27:43;97601.03;;;-0.81;48.05
63285;BME280;49409;55.708;37.522;2023-02-19T05:30:09;97595.63;;;-0.77;47.36
63285;BME280;49409;55.708;37.522;2023-02-19T05:32:34;97599.88;;;-0.76;47.64
63285;BME280;49409;55.708;37.522;2023-02-19T05:35:00;97599.09;;;-0.73;47.47
63285;BME280;49409;55.708;37.522;2023-02-19T05:37:26;97581.34;;;-0.70;47.64
63285;BME280;49409;55.708;37.522;2023-02-19T05:39:51;97584.03;;;-0.74;47.73
63285;BME280;49409;55.708;37.522;2023-02-19T05:42:16;97591.38;;;-0.78;47.74
63285;BME280;49409;55.708;37.522;2023-02-19T05:44:42;97587.91;;;-0.78;47.89
63285;BME280;49409;55.708;37.522;2023-02-19T05:47:07;97590.63;;;-0.75;47.77
63285;BME280;49409;55.708;37.522;2023-02-19T05:49:32;97593.31;;;-0.71;47.46
63285;BME280;49409;55.708;37.522;2023-02-19T05:51:58;97586.38;;;-0.62;47.29
63285;BME280;49409;55.708;37.522;2023-02-19T05:54:23;97593.31;;;-0.57;47.49
63285;BME280;49409;55.708;37.522;2023-02-19T05:56:48;97581.34;;;-0.60;47.32
63285;BME280;49409;55.708;37.522;2023-02-19T05:59:18;97584.44;;;-0.68;47.97
63285;BME280;49409;55.708;37.522;2023-02-19T06:01:44;97591.38;;;-0.67;47.56
63285;BME280;49409;55.708;37.522;2023-02-19T06:04:10;97590.22;;;-0.73;48.03
63285;BME280;49409;55.708;37.522;2023-02-19T06:06:35;97596.41;;;-0.66;47.82
63285;BME280;49409;55.708;37.522;2023-02-19T06:09:01;97593.69;;;-0.69;47.41
63285;BME280;49409;55.708;37.522;2023-02-19T06:11:27;97588.28;;;-0.62;47.72
63285;BME280;49409;55.708;37.522;2023-02-19T06:13:52;97579.03;;;-0.54;47.32
63285;BME280;49409;55.708;37.522;2023-02-19T06:16:18;97586.00;;;-0.56;47.33
63285;BME280;49409;55.708;37.522;2023-02-19T06:18:44;97585.19;;;-0.53;47.35
63285;BME280;49409;55.708;37.522;2023-02-19T06:21:09;97578.25;;;-0.54;47.55
63285;BME280;49409;55.708;37.522;2023-02-19T06:23:35;97573.63;;;-0.57;47.78
63285;BME280;49409;55.708;37.522;2023-02-19T06:26:07;97573.25;;;-0.67;47.48
63285;BME280;49409;55.708;37.522;2023-02-19T06:28:33;97583.28;;;-0.64;48.02
63285;BME280;49409;55.708;37.522;2023-02-19T06:30:58;97579.44;;;-0.63;47.91
63285;BME280;49409;55.708;37.522;2023-02-19T06:33:25;97586.38;;;-0.58;47.30
63285;BME280;49409;55.708;37.522;2023-02-19T06:35:50;97579.03;;;-0.57;47.44
63285;BME280;49409;55.708;37.522;2023-02-19T06:38:15;97589.06;;;-0.62;47.67
63285;BME280;49409;55.708;37.522;2023-02-19T06:40:41;97573.25;;;-0.60;47.44
63285;BME280;49409;55.708;37.522;2023-02-19T06:43:06;97566.69;;;-0.51;47.23
63285;BME280;49409;55.708;37.522;2023-02-19T06:45:32;97565.16;;;-0.49;47.54
63285;BME280;49409;55.708;37.522;2023-02-19T06:47:58;97561.28;;;-0.51;47.60
63285;BME280;49409;55.708;37.522;2023-02-19T06:50:23;97563.59;;;-0.43;47.39
63285;BME280;49409;55.708;37.522;2023-02-19T06:52:48;97557.00;;;-0.34;47.01
63285;BME280;49409;55.708;37.522;2023-02-19T06:55:14;97563.94;;;-0.26;46.85
63285;BME280;49409;55.708;37.522;2023-02-19T06:57:39;97557.41;;;-0.29;47.24
63285;BME280;49409;55.708;37.522;2023-02-19T07:00:04;97562.41;;;-0.27;47.22
63285;BME280;49409;55.708;37.522;2023-02-19T07:02:30;97543.50;;;-0.31;47.07
63285;BME280;49409;55.708;37.522;2023-02-19T07:04:55;97552.38;;;-0.34;46.94
63285;BME280;49409;55.708;37.522;2023-02-19T07:07:20;97541.56;;;-0.34;47.04
63285;BME280;49409;55.708;37.522;2023-02-19T07:09:46;97550.44;;;-0.30;47.16
63285;BME280;49409;55.708;37.522;2023-02-19T07:12:11;97523.44;;;-0.33;47.20
63285;BME280;49409;55.708;37.522;2023-02-19T07:14:37;97547.31;;;-0.14;46.57
63285;BME280;49409;55.708;37.522;2023-02-19T07:17:02;97539.63;;;-0.15;47.16
63285;BME280;49409;55.708;37.522;2023-02-19T07:19:27;97542.66;;;-0.06;47.05
63285;BME280;49409;55.708;37.522;2023-02-19T07:21:53;97540.72;;;0.02;46.57
63285;BME280;49409;55.708;37.522;2023-02-19T07:24:18;97535.72;;;-0.07;46.76
63285;BME280;49409;55.708;37.522;2023-02-19T07:26:45;97526.84;;;-0.11;46.63
63285;BME280;49409;55.708;37.522;2023-02-19T07:29:11;97527.66;;;-0.29;47.09
63285;BME280;49409;55.708;37.522;2023-02-19T07:31:36;97524.97;;;-0.22;47.04
63285;BME280;49409;55.708;37.522;2023-02-19T07:34:01;97528.38;;;-0.14;46.79
63285;BME280;49409;55.708;37.522;2023-02-19T07:36:26;97517.19;;;-0.16;46.70
63285;BME280;49409;55.708;37.522;2023-02-19T07:38:53;97520.28;;;-0.10;46.87
63285;BME280;49409;55.708;37.522;2023-02-19T07:41:19;97528.00;;;-0.12;46.95
63285;BME280;49409;55.708;37.522;2023-02-19T07:43:45;97521.06;;;-0.10;46.70
63285;BME280;49409;55.708;37.522;2023-02-19T07:46:11;97518.00;;;-0.15;46.75
63285;BME280;49409;55.708;37.522;2023-02-19T07:48:37;97520.69;;;-0.15;46.89
63285;BME280;49409;55.708;37.522;2023-02-19T07:51:04;97517.94;;;-0.08;46.57
63285;BME280;49409;55.708;37.522;2023-02-19T07:53:30;97520.66;;;-0.05;47.07
63285;BME280;49409;55.708;37.522;2023-02-19T07:55:59;97521.03;;;0.01;46.79
63285;BME280;49409;55.708;37.522;2023-02-19T07:58:25;97507.88;;;0.03;46.74
63285;BME280;49409;55.708;37.522;2023-02-19T08:00:51;97509.81;;;0.06;46.83
63285;BME280;49409;55.708;37.522;2023-02-19T08:03:16;97508.63;;;0.11;47.04
63285;BME280;49409;55.708;37.522;2023-02-19T08:05:41;97493.22;;;0.04;46.63
63285;BME280;49409;55.708;37.522;2023-02-19T08:08:08;97503.63;;;0.06;46.84
63285;BME280;49409;55.708;37.522;2023-02-19T08:10:33;97499.75;;;0.10;46.97
63285;BME280;49409;55.708;37.522;2023-02-19T08:13:18;97502.44;;;0.14;46.61
63285;BME280;49409;55.708;37.522;2023-02-19T08:15:45;97499.75;;;0.14;46.70
63285;BME280;49409;55.708;37.522;2023-02-19T08:18:11;97503.22;;;0.14;47.00
63285;BME280;49409;55.708;37.522;2023-02-19T08:20:38;97498.56;;;0.18;46.82
63285;BME280;49409;55.708;37.522;2023-02-19T08:23:03;97483.81;;;0.34;46.52
63285;BME280;49409;55.708;37.522;2023-02-19T08:25:28;97497.75;;;0.25;46.48
63285;BME280;49409;55.708;37.522;2023-02-19T08:27:54;97490.00;;;0.31;46.62
63285;BME280;49409;55.708;37.522;2023-02-19T08:30:19;97492.28;;;0.36;46.64
63285;BME280;49409;55.708;37.522;2023-02-19T08:32:45;97486.88;;;0.36;46.39
63285;BME280;49409;55.708;37.522;2023-02-19T08:35:10;97493.03;;;0.40;46.56
63285;BME280;49409;55.708;37.522;2023-02-19T08:37:35;97482.16;;;0.47;46.09
63285;BME280;49409;55.708;37.522;2023-02-19T08:40:01;97488.41;;;0.41;46.22
63285;BME280;49409;55.708;37.522;2023-02-19T08:42:27;97478.34;;;0.41;46.46
63285;BME280;49409;55.708;37.522;2023-02-19T08:44:52;97491.09;;;0.44;46.36
63285;BME280;49409;55.708;37.522;2023-02-19T08:47:18;97479.06;;;0.49;46.04
63285;BME280;49409;55.708;37.522;2023-02-19T08:49:43;97492.19;;;0.54;45.95
63285;BME280;49409;55.708;37.522;2023-02-19T08:52:08;97479.81;;;0.49;46.02
63285;BME280;49409;55.708;37.522;2023-02-19T08:54:33;97479.06;;;0.49;46.34
63285;BME280;49409;55.708;37.522;2023-02-19T08:56:59;97481.00;;;0.52;46.15
63285;BME280;49409;55.708;37.522;2023-02-19T08:59:24;97469.78;;;0.53;46.00
63285;BME280;49409;55.708;37.522;2023-02-19T09:01:50;97483.63;;;0.59;46.20
63285;BME280;49409;55.708;37.522;2023-02-19T09:04:16;97473.50;;;0.74;46.23
63285;BME280;49409;55.708;37.522;2023-02-19T09:06:42;97466.59;;;0.69;45.98
63285;BME280;49409;55.708;37.522;2023-02-19T09:09:07;97464.19;;;0.75;46.20
63285;BME280;49409;55.708;37.522;2023-02-19T09:11:32;97462.66;;;0.77;46.01
63285;BME280;49409;55.708;37.522;2023-02-19T09:13:58;97446.44;;;0.74;46.18
63285;BME280;49409;55.708;37.522;2023-02-19T09:16:23;97454.19;;;0.68;45.97
63285;BME280;49409;55.708;37.522;2023-02-19T09:18:48;97460.38;;;0.69;46.24
63285;BME280;49409;55.708;37.522;2023-02-19T09:21:14;97459.63;;;0.68;46.30
63285;BME280;49409;55.708;37.522;2023-02-19T09:23:39;97454.56;;;0.74;45.99
63285;BME280;49409;55.708;37.522;2023-02-19T09:26:05;97447.94;;;0.75;46.01
63285;BME280;49409;55.708;37.522;2023-02-19T09:28:35;97451.88;;;0.67;46.50
63285;BME280;49409;55.708;37.522;2023-02-19T09:31:05;97454.66;;;0.59;46.28
63285;BME280;49409;55.708;37.522;2023-02-19T09:33:31;97451.94;;;0.59;46.58
63285;BME280;49409;55.708;37.522;2023-02-19T09:36:00;97451.13;;;0.63;46.03
63285;BME280;49409;55.708;37.522;2023-02-19T09:38:25;97442.59;;;0.68;46.29
63285;BME280;49409;55.708;37.522;2023-02-19T09:40:51;97447.22;;;0.71;46.11
63285;BME280;49409;55.708;37.522;2023-02-19T09:43:20;97438.72;;;0.69;45.97
63285;BME280;49409;55.708;37.522;2023-02-19T09:45:47;97449.91;;;0.71;46.16
63285;BME280;49409;55.708;37.522;2023-02-19T09:48:14;97429.78;;;0.79;45.66
63285;BME280;49409;55.708;37.522;2023-02-19T09:50:41;97433.63;;;0.78;46.25
63285;BME280;49409;55.708;37.522;2023-02-19T09:53:12;97431.69;;;0.78;45.91
63285;BME280;49409;55.708;37.522;2023-02-19T09:55:40;97427.34;;;0.88;45.92
63285;BME280;49409;55.708;37.522;2023-02-19T09:58:21;97431.59;;;0.93;45.79
63285;BME280;49409;55.708;37.522;2023-02-19T10:00:49;97423.69;;;1.13;45.71
63285;BME280;49409;55.708;37.522;2023-02-19T10:03:25;97416.97;;;1.25;45.20
63285;BME280;49409;55.708;37.522;2023-02-19T10:05:55;97423.69;;;1.13;45.38
63285;BME280;49409;55.708;37.522;2023-02-19T10:08:21;97415.88;;;1.18;45.31
63285;BME280;49409;55.708;37.522;2023-02-19T10:10:46;97414.72;;;1.16;45.50
63285;BME280;49409;55.708;37.522;2023-02-19T10:13:16;97431.72;;;1.20;45.51
63285;BME280;49409;55.708;37.522;2023-02-19T10:15:46;97420.91;;;1.16;45.48
63285;BME280;49409;55.708;37.522;2023-02-19T10:18:17;97419.78;;;1.14;45.23
63285;BME280;49409;55.708;37.522;2023-02-19T10:20:44;97423.19;;;1.22;45.72
63285;BME280;49409;55.708;37.522;2023-02-19T10:23:09;97418.84;;;1.31;45.16
63285;BME280;49409;55.708;37.522;2023-02-19T10:25:39;97428.09;;;1.34;45.11
63285;BME280;49409;55.708;37.522;2023-02-19T10:28:08;97423.13;;;1.29;45.36
63285;BME280;49409;55.708;37.522;2023-02-19T10:30:36;97423.47;;;1.34;45.35
63285;BME280;49409;55.708;37.522;2023-02-19T10:33:08;97421.91;;;1.33;45.39
63285;BME280;49409;55.708;37.522;2023-02-19T10:35:34;97419.22;;;1.33;45.44
63285;BME280;49409;55.708;37.522;2023-02-19T10:38:00;97421.19;;;1.29;45.85
63285;BME280;49409;55.708;37.522;2023-02-19T10:40:26;97425.00;;;1.35;45.41
63285;BME280;49409;55.708;37.522;2023-02-19T10:42:55;97418.78;;;1.38;45.00
63285;BME280;49409;55.708;37.522;2023-02-19T10:48:08;97414.22;;;1.28;45.00
63285;BME280;49409;55.708;37.522;2023-02-19T10:50:45;97397.38;;;1.10;45.14
63285;BME280;49409;55.708;37.522;2023-02-19T10:53:20;97412.69;;;1.27;45.36
63285;BME280;49409;55.708;37.522;2023-02-19T10:55:47;97411.16;;;1.26;45.41
63285;BME280;49409;55.708;37.522;2023-02-19T10:58:23;97406.38;;;1.37;45.06
63285;BME280;49409;55.708;37.522;2023-02-19T11:01:08;97399.25;;;1.54;45.28
63285;BME280;49409;55.708;37.522;2023-02-19T11:03:33;97403.75;;;1.68;44.93
63285;BME280;49409;55.708;37.522;2023-02-19T11:06:00;97403.00;;;1.64;44.88
63285;BME280;49409;55.708;37.522;2023-02-19T11:08:26;97407.16;;;1.72;44.73
63285;BME280;49409;55.708;37.522;2023-02-19T11:10:52;97405.72;;;1.95;44.80
63285;BME280;49409;55.708;37.522;2023-02-19T11:13:20;97392.34;;;2.11;44.66
63285;BME280;49409;55.708;37.522;2023-02-19T11:15:50;97405.34;;;2.24;44.29
63285;BME280;49409;55.708;37.522;2023-02-19T11:18:20;97394.09;;;2.25;44.04
63285;BME280;49409;55.708;37.522;2023-02-19T11:20:50;97390.50;;;2.32;44.36
63285;BME280;49409;55.708;37.522;2023-02-19T11:23:19;97393.94;;;2.36;44.08
63285;BME280;49409;55.708;37.522;2023-02-19T11:25:47;97389.56;;;2.42;44.18
63285;BME280;49409;55.708;37.522;2023-02-19T11:30:45;97389.78;;;2.28;44.30
63285;BME280;49409;55.708;37.522;2023-02-19T11:35:46;97394.69;;;2.09;44.19
63285;BME280;49409;55.708;37.522;2023-02-19T11:38:13;97391.81;;;1.93;43.93
63285;BME280;49409;55.708;37.522;2023-02-19T11:43:34;97397.41;;;1.78;44.83
63285;BME280;49409;55.708;37.522;2023-02-19T11:51:14;97386.56;;;1.78;44.52
63285;BME280;49409;55.708;37.522;2023-02-19T11:53:47;97389.59;;;1.84;44.58
63285;BME280;49409;55.708;37.522;2023-02-19T11:56:25;97388.41;;;1.85;44.71
63285;BME280;49409;55.708;37.522;2023-02-19T11:58:59;97383.25;;;1.94;44.46
63285;BME280;49409;55.708;37.522;2023-02-19T12:16:44;97376.53;;;1.75;43.68
63285;BME280;49409;55.708;37.522;2023-02-19T12:19:24;97379.22;;;1.75;43.57
63285;BME280;49409;55.708;37.522;2023-02-19T12:23:02;97388.91;;;1.76;44.15
63285;BME280;49409;55.708;37.522;2023-02-19T12:27:30;97381.25;;;1.68;44.33
63285;BME280;49409;55.708;37.522;2023-02-19T12:35:03;97383.56;;;1.69;43.95
63285;BME280;49409;55.708;37.522;2023-02-19T12:43:16;97384.72;;;1.37;44.13
63285;BME280;49409;55.708;37.522;2023-02-19T12:51:18;97397.78;;;1.46;44.06
63285;BME280;49409;55.708;37.522;2023-02-19T12:56:17;97387.72;;;1.47;43.96
63285;BME280;49409;55.708;37.522;2023-02-19T12:58:47;97383.56;;;1.38;44.06
63285;BME280;49409;55.708;37.522;2023-02-19T13:01:36;97384.38;;;1.32;44.10
63285;BME280;49409;55.708;37.522;2023-02-19T13:04:10;97388.97;;;1.38;44.23
63285;BME280;49409;55.708;37.522;2023-02-19T13:06:43;97387.22;;;1.21;44.22
63285;BME280;49409;55.708;37.522;2023-02-19T13:09:23;97393.72;;;1.27;44.13
63285;BME280;49409;55.708;37.522;2023-02-19T13:11:55;97401.03;;;1.30;44.71
63285;BME280;49409;55.708;37.522;2023-02-19T13:14:33;97394.75;;;1.41;44.32
63285;BME280;49409;55.708;37.522;2023-02-19T13:17:03;97394.66;;;1.48;44.08
63285;BME280;49409;55.708;37.522;2023-02-19T13:19:30;97393.50;;;1.49;44.26
63285;BME280;49409;55.708;37.522;2023-02-19T13:25:06;97388.16;;;1.42;44.26
63285;BME280;49409;55.708;37.522;2023-02-19T13:32:32;97388.84;;;1.11;44.49
63285;BME280;49409;55.708;37.522;2023-02-19T13:37:45;97388.91;;;1.04;45.02
63285;BME280;49409;55.708;37.522;2023-02-19T13:42:46;97389.09;;;0.86;45.79
63285;BME280;49409;55.708;37.522;2023-02-19T13:45:20;97388.41;;;0.75;46.43
63285;BME280;49409;55.708;37.522;2023-02-19T13:47:57;97389.16;;;0.79;45.65
63285;BME280;49409;55.708;37.522;2023-02-19T13:50:24;97381.41;;;0.81;45.48
63285;BME280;49409;55.708;37.522;2023-02-19T13:52:51;97395.38;;;0.76;45.39
63285;BME280;49409;55.708;37.522;2023-02-19T14:00:47;97383.13;;;0.61;46.46
63285;BME280;49409;55.708;37.522;2023-02-19T14:03:26;97375.75;;;0.61;46.47
63285;BME280;49409;55.708;37.522;2023-02-19T14:05:59;97375.06;;;0.53;46.29
63285;BME280;49409;55.708;37.522;2023-02-19T14:11:09;97366.13;;;0.60;46.22
63285;BME280;49409;55.708;37.522;2023-02-19T14:19:12;97367.97;;;0.67;45.88
63285;BME280;49409;55.708;37.522;2023-02-19T14:21:38;97362.16;;;0.72;45.99
63285;BME280;49409;55.708;37.522;2023-02-19T14:24:03;97364.00;;;0.78;45.68
63285;BME280;49409;55.708;37.522;2023-02-19T14:26:30;97364.41;;;0.77;45.79
63285;BME280;49409;55.708;37.522;2023-02-19T14:28:57;97366.31;;;0.80;45.53
63285;BME280;49409;55.708;37.522;2023-02-19T14:31:25;97359.75;;;0.81;45.92
63285;BME280;49409;55.708;37.522;2023-02-19T14:33:55;97369.81;;;0.77;45.98
63285;BME280;49409;55.708;37.522;2023-02-19T14:38:51;97360.59;;;0.71;45.74
63285;BME280;49409;55.708;37.522;2023-02-19T14:41:17;97357.59;;;0.62;46.15
63285;BME280;49409;55.708;37.522;2023-02-19T14:43:44;97356.88;;;0.57;46.24